createdAt,value
2022-10-03T00:02:45.410Z,93934.56
2022-10-03T00:07:54.284Z,93932.59
2022-10-03T00:13:19.651Z,93933.38
2022-10-03T00:18:44.409Z,93923.94
2022-10-03T00:23:58.727Z,93888.97
2022-10-03T00:29:42.170Z,93905.84
2022-10-03T00:34:51.183Z,93898.81
2022-10-03T00:40:06.731Z,93894.88
2022-10-03T00:45:37.379Z,93895.69
2022-10-03T00:51:05.776Z,93898.72
2022-10-03T00:56:22.243Z,93904.53
2022-10-03T01:01:29.303Z,93904.94
2022-10-03T01:06:35.678Z,93898.63
2022-10-03T01:11:58.119Z,93894.06
2022-10-03T01:17:17.787Z,93882.25
2022-10-03T01:22:51.868Z,93867.38
2022-10-03T01:28:26.376Z,93871.38
2022-10-03T01:33:42.568Z,93859.59
2022-10-03T01:38:55.089Z,93839.22
2022-10-03T01:44:13.105Z,93860.72
2022-10-03T01:49:17.135Z,93854.06
2022-10-03T01:54:31.877Z,93847.78
2022-10-03T01:59:55.989Z,93841.09
2022-10-03T02:05:17.404Z,93848.88
2022-10-03T02:10:21.337Z,93846.06
2022-10-03T02:15:33.318Z,93837.88
2022-10-03T02:20:52.502Z,93831.91
2022-10-03T02:26:27.276Z,93833.47
2022-10-03T02:32:16.469Z,93838.88
2022-10-03T02:37:38.443Z,93836.88
2022-10-03T02:43:16.552Z,93828.16
2022-10-03T02:48:32.901Z,93836.78
2022-10-03T02:54:01.613Z,93829.31
2022-10-03T02:59:07.439Z,93823.03
2022-10-03T03:04:48.242Z,93819.88
2022-10-03T03:10:40.395Z,93819.88
2022-10-03T03:16:22.008Z,93826.44
2022-10-03T03:21:34.302Z,93816.63
2022-10-03T03:26:46.647Z,93822.09
2022-10-03T03:32:11.248Z,93819.69
2022-10-03T03:37:49.133Z,93820.00
2022-10-03T03:42:58.909Z,93810.94
2022-10-03T03:48:14.484Z,93813.97
2022-10-03T03:53:39.383Z,93811.22
2022-10-03T03:59:04.059Z,93809.25
2022-10-03T04:04:19.579Z,93809.19
2022-10-03T04:09:44.633Z,93800.13
2022-10-03T04:14:59.914Z,93795.00
2022-10-03T04:20:27.072Z,93791.47
2022-10-03T04:26:08.911Z,93792.50
2022-10-03T04:31:55.136Z,93796.78
2022-10-03T04:37:40.424Z,93790.44
2022-10-03T04:42:50.403Z,93788.59
2022-10-03T04:48:07.017Z,93792.59
2022-10-03T04:53:41.605Z,93787.13
2022-10-03T04:59:26.960Z,93789.13
2022-10-03T05:04:37.031Z,93794.28
2022-10-03T05:10:06.618Z,93790.19
2022-10-03T05:15:24.548Z,93786.38
2022-10-03T05:20:45.033Z,93787.44
2022-10-03T05:32:33.934Z,93786.63
2022-10-03T05:37:49.637Z,93782.03
2022-10-03T05:43:01.765Z,93796.69
2022-10-03T05:48:30.079Z,93798.06
2022-10-03T05:53:58.666Z,93792.69
2022-10-03T05:59:14.549Z,93799.81
2022-10-03T06:04:50.568Z,93798.25
2022-10-03T06:09:54.097Z,93797.84
2022-10-03T06:15:35.153Z,93769.63
2022-10-03T06:21:16.107Z,93777.34
2022-10-03T06:26:22.740Z,93787.63
2022-10-03T06:31:54.107Z,93781.25
2022-10-03T06:37:23.923Z,93777.03
2022-10-03T06:42:53.805Z,93785.72
2022-10-03T06:48:15.180Z,93783.47
2022-10-03T06:53:43.016Z,93785.94
2022-10-03T06:58:58.565Z,93792.13
2022-10-03T07:04:17.051Z,93796.78
2022-10-03T07:09:38.658Z,93789.66
2022-10-03T07:15:03.399Z,93800.50
2022-10-03T07:20:33.524Z,93795.66
2022-10-03T07:26:14.194Z,93797.28
2022-10-03T07:31:47.151Z,93788.75
2022-10-03T07:37:31.440Z,93793.78
2022-10-03T07:42:46.940Z,93799.91
2022-10-03T07:48:13.626Z,93808.69
2022-10-03T07:53:35.665Z,93793.09
2022-10-03T07:58:57.319Z,93781.59
2022-10-03T08:04:21.917Z,93795.16
2022-10-03T08:09:54.570Z,93803.69
2022-10-03T08:15:08.826Z,93792.06
2022-10-03T08:20:29.537Z,93790.44
2022-10-03T08:26:14.083Z,93799.31
2022-10-03T08:31:28.955Z,93795.34
2022-10-03T08:37:12.481Z,93798.31
2022-10-03T08:42:18.600Z,93803.03
2022-10-03T08:47:59.300Z,93789.00
2022-10-03T08:53:24.676Z,93791.09
2022-10-03T08:58:49.210Z,93787.56
2022-10-03T09:04:04.838Z,93777.34
2022-10-03T09:09:36.651Z,93783.44
2022-10-03T09:14:51.964Z,93775.66
2022-10-03T09:20:02.521Z,93770.81
2022-10-03T09:25:32.203Z,93764.50
2022-10-03T09:31:05.897Z,93761.94
2022-10-03T09:36:46.260Z,93769.78
2022-10-03T09:42:22.776Z,93758.47
2022-10-03T09:47:50.852Z,93767.06
2022-10-03T09:53:15.908Z,93756.94
2022-10-03T09:58:19.348Z,93769.00
2022-10-03T10:03:47.941Z,93768.25
2022-10-03T10:09:23.651Z,93765.28
2022-10-03T10:14:48.120Z,93751.72
2022-10-03T10:20:07.853Z,93748.75
2022-10-03T10:25:38.185Z,93729.31
2022-10-03T10:31:16.473Z,93752.53
2022-10-03T10:36:47.587Z,93751.25
2022-10-03T10:42:18.516Z,93742.06
2022-10-03T10:47:46.179Z,93744.56
2022-10-03T10:53:28.034Z,93748.31
2022-10-03T10:58:59.336Z,93744.16
2022-10-03T11:04:24.393Z,93737.75
2022-10-03T11:10:00.920Z,93737.09
2022-10-03T11:15:23.324Z,93716.25
2022-10-03T11:20:52.708Z,93724.34
2022-10-03T11:26:32.861Z,93713.97
2022-10-03T11:32:10.076Z,93716.72
2022-10-03T11:37:32.954Z,93712.03
2022-10-03T11:42:48.662Z,93709.56
2022-10-03T11:48:23.868Z,93695.31
2022-10-03T11:53:32.768Z,93680.53
2022-10-03T11:58:57.786Z,93683.53
2022-10-03T12:04:13.498Z,93674.00
2022-10-03T12:09:30.278Z,93669.94
2022-10-03T12:14:45.174Z,93661.00
2022-10-03T12:20:01.122Z,93674.50
2022-10-03T12:25:20.332Z,93663.31
2022-10-03T12:30:25.739Z,93658.91
2022-10-03T12:35:36.250Z,93661.13
2022-10-03T12:40:46.892Z,93657.50
2022-10-03T12:46:00.834Z,93643.84
2022-10-03T12:51:23.561Z,93640.72
2022-10-03T12:56:36.010Z,93643.34
2022-10-03T13:02:00.719Z,93634.78
2022-10-03T13:07:15.477Z,93645.97
2022-10-03T13:12:41.016Z,93631.53
2022-10-03T13:17:51.716Z,93634.59
2022-10-03T13:23:10.758Z,93632.88
2022-10-03T13:28:21.628Z,93627.38
2022-10-03T13:33:28.404Z,93635.44
2022-10-03T13:39:05.523Z,93625.41
2022-10-03T13:44:15.292Z,93635.16
2022-10-03T13:49:45.741Z,93631.06
2022-10-03T13:54:55.323Z,93620.81
2022-10-03T14:00:12.751Z,93622.34
2022-10-03T14:05:34.210Z,93626.91
2022-10-03T14:11:11.302Z,93615.16
2022-10-03T14:16:30.585Z,93615.19
2022-10-03T14:21:51.507Z,93622.47
2022-10-03T14:27:39.942Z,93614.13
2022-10-03T14:33:17.266Z,93612.88
2022-10-03T14:39:00.561Z,93617.19
2022-10-03T14:44:13.556Z,93603.25
2022-10-03T14:49:52.220Z,93612.09
2022-10-03T14:54:54.908Z,93602.84
2022-10-03T14:59:58.690Z,93627.75
2022-10-03T15:05:09.053Z,93618.53
2022-10-03T15:10:21.610Z,93627.38
2022-10-03T15:15:29.294Z,93616.31
2022-10-03T15:20:37.754Z,93628.69
2022-10-03T15:25:43.147Z,93637.50
2022-10-03T15:30:47.287Z,93633.69
2022-10-03T15:35:55.595Z,93632.94
2022-10-03T15:41:21.292Z,93642.13
2022-10-03T15:46:33.400Z,93643.41
2022-10-03T15:51:39.459Z,93640.00
2022-10-03T15:56:46.461Z,93641.50
2022-10-03T16:01:54.131Z,93642.84
2022-10-03T16:07:09.631Z,93646.84
2022-10-03T16:12:34.306Z,93665.78
2022-10-03T16:17:50.012Z,93657.19
2022-10-03T16:22:54.882Z,93662.00
2022-10-03T16:28:03.889Z,93665.03
2022-10-03T16:33:16.674Z,93681.91
2022-10-03T16:38:31.348Z,93687.00
2022-10-03T16:43:35.930Z,93690.28
2022-10-03T16:49:02.851Z,93702.50
2022-10-03T16:54:12.829Z,93691.03
2022-10-03T16:59:21.802Z,93700.72
2022-10-03T17:04:33.515Z,93688.41
2022-10-03T17:09:37.813Z,93696.09
2022-10-03T17:14:43.426Z,93700.59
2022-10-03T17:19:58.633Z,93704.94
2022-10-03T17:25:34.672Z,93705.28
2022-10-03T17:30:52.535Z,93708.66
2022-10-03T17:36:13.849Z,93714.41
2022-10-03T17:41:48.577Z,93719.31
2022-10-03T17:47:06.071Z,93699.28
2022-10-03T17:52:21.474Z,93715.13
2022-10-03T17:57:52.999Z,93720.41
2022-10-03T18:03:07.620Z,93663.09
2022-10-03T18:08:20.842Z,93724.31
2022-10-03T18:13:47.489Z,93722.97
2022-10-03T18:18:57.609Z,93722.28
2022-10-03T18:24:23.186Z,93724.34
2022-10-03T18:29:44.823Z,93722.19
2022-10-03T18:34:53.078Z,93730.94
2022-10-03T18:39:59.182Z,93731.69
2022-10-03T18:45:03.771Z,93737.63
2022-10-03T18:50:30.230Z,93736.97
2022-10-03T18:56:18.703Z,93737.41
2022-10-03T19:01:30.836Z,93742.91
2022-10-03T19:06:41.997Z,93746.50
2022-10-03T19:11:57.719Z,93757.13
2022-10-03T19:17:26.137Z,93752.88
2022-10-03T19:22:42.780Z,93768.22
2022-10-03T19:27:52.574Z,93756.47
2022-10-03T19:33:13.236Z,93754.16
2022-10-03T19:38:23.437Z,93765.19
2022-10-03T19:43:43.489Z,93769.19
2022-10-03T19:49:01.697Z,93770.41
2022-10-03T19:54:14.444Z,93775.56
2022-10-03T19:59:18.827Z,93770.09
2022-10-03T20:04:36.856Z,93782.31
2022-10-03T20:09:56.300Z,93790.97
2022-10-03T20:15:04.189Z,93796.84
2022-10-03T20:20:16.632Z,93801.19
2022-10-03T20:25:34.388Z,93783.97
2022-10-03T20:30:53.510Z,93794.97
2022-10-03T20:36:04.818Z,93804.84
2022-10-03T20:41:20.253Z,93802.09
2022-10-03T20:46:29.464Z,93802.47
2022-10-03T20:51:42.979Z,93801.28
2022-10-03T20:57:21.543Z,93796.59
2022-10-03T21:02:32.006Z,93778.19
2022-10-03T21:07:49.294Z,93785.59
2022-10-03T21:13:00.335Z,93791.88
2022-10-03T21:18:04.719Z,93777.41
2022-10-03T21:23:22.236Z,93788.75
2022-10-03T21:28:30.347Z,93796.19
2022-10-03T21:34:07.959Z,93794.66
2022-10-03T21:39:50.978Z,93793.50
2022-10-03T21:44:54.011Z,93789.19
2022-10-03T21:50:04.108Z,93793.53
2022-10-03T21:55:26.586Z,93787.66
2022-10-03T22:01:02.550Z,93781.78
2022-10-03T22:06:19.926Z,93774.34
2022-10-03T22:11:29.147Z,93787.28
2022-10-03T22:17:20.576Z,93781.78
2022-10-03T22:23:03.130Z,93792.75
2022-10-03T22:28:26.096Z,93784.91
2022-10-03T22:33:39.612Z,93777.09
2022-10-03T22:38:44.003Z,93788.06
2022-10-03T22:43:48.746Z,93782.19
2022-10-03T22:49:06.448Z,93778.66
2022-10-03T22:54:13.183Z,93774.34
2022-10-03T22:59:33.108Z,93783.34
2022-10-03T23:04:39.984Z,93799.06
2022-10-03T23:10:01.937Z,93790.41
2022-10-03T23:15:09.207Z,93795.13
2022-10-03T23:20:18.495Z,93790.41
2022-10-03T23:25:41.026Z,93777.50
2022-10-03T23:30:51.113Z,93783.75
2022-10-03T23:35:55.447Z,93790.03
2022-10-03T23:41:02.468Z,93796.28
2022-10-03T23:46:11.936Z,93802.16
2022-10-03T23:51:19.714Z,93791.97
2022-10-03T23:56:22.626Z,93804.09
